createdAt,value
2022-10-07T00:00:27.281Z,2.88
2022-10-07T00:02:53.841Z,3.38
2022-10-07T00:05:20.364Z,3.15
2022-10-07T00:07:47.188Z,2.80
2022-10-07T00:10:14.039Z,3.10
2022-10-07T00:12:40.621Z,2.95
2022-10-07T00:15:07.490Z,3.10
2022-10-07T00:17:34.139Z,2.67
2022-10-07T00:20:00.841Z,3.50
2022-10-07T00:22:27.439Z,3.03
2022-10-07T00:24:54.044Z,2.72
2022-10-07T00:27:20.619Z,2.70
2022-10-07T00:29:47.206Z,2.85
2022-10-07T00:32:14.013Z,2.80
2022-10-07T00:34:40.649Z,2.70
2022-10-07T00:37:07.252Z,3.13
2022-10-07T00:39:33.865Z,3.10
2022-10-07T00:42:00.437Z,3.08
2022-10-07T00:44:36.155Z,3.17
2022-10-07T00:47:04.843Z,2.55
2022-10-07T00:49:40.750Z,2.85
2022-10-07T00:52:07.777Z,2.45
2022-10-07T00:54:34.791Z,2.85
2022-10-07T00:57:01.416Z,2.85
2022-10-07T00:59:28.038Z,2.60
2022-10-07T01:01:54.628Z,2.90
2022-10-07T01:04:21.212Z,3.00
2022-10-07T01:06:47.942Z,3.08
2022-10-07T01:09:14.784Z,2.92
2022-10-07T01:12:10.606Z,2.65
2022-10-07T01:14:38.591Z,2.83
2022-10-07T01:17:11.001Z,2.90
2022-10-07T01:19:37.641Z,2.90
2022-10-07T01:22:21.415Z,2.75
2022-10-07T01:24:56.832Z,3.17
2022-10-07T01:27:24.819Z,2.50
2022-10-07T01:29:57.442Z,2.90
2022-10-07T01:32:44.426Z,3.88
2022-10-07T01:35:13.860Z,2.85
2022-10-07T01:37:43.638Z,3.00
2022-10-07T01:40:13.172Z,3.10
2022-10-07T01:42:40.303Z,2.72
2022-10-07T01:45:08.814Z,2.95
2022-10-07T01:47:35.480Z,2.80
2022-10-07T01:50:02.249Z,3.20
2022-10-07T01:52:52.991Z,3.63
2022-10-07T01:55:29.489Z,2.63
2022-10-07T01:58:02.198Z,2.60
2022-10-07T02:00:29.235Z,2.75
2022-10-07T02:03:09.692Z,2.92
2022-10-07T02:05:43.234Z,2.75
2022-10-07T02:08:12.907Z,2.80
2022-10-07T02:10:56.245Z,2.67
2022-10-07T02:13:41.675Z,2.80
2022-10-07T02:16:21.805Z,2.28
2022-10-07T02:18:52.350Z,2.90
2022-10-07T02:21:22.036Z,2.90
2022-10-07T02:23:49.608Z,2.70
2022-10-07T02:26:19.475Z,2.70
2022-10-07T02:28:47.908Z,2.83
2022-10-07T02:31:18.176Z,3.03
2022-10-07T02:33:47.104Z,2.58
2022-10-07T02:36:16.817Z,2.88
2022-10-07T02:38:44.497Z,3.03
2022-10-07T02:41:14.497Z,2.80
2022-10-07T02:43:50.702Z,2.55
2022-10-07T02:46:24.965Z,2.60
2022-10-07T02:48:52.027Z,2.58
2022-10-07T02:51:21.417Z,2.58
2022-10-07T02:53:51.105Z,2.72
2022-10-07T02:56:20.387Z,2.75
2022-10-07T02:58:47.721Z,2.40
2022-10-07T03:01:18.538Z,2.45
2022-10-07T03:03:45.797Z,2.50
2022-10-07T03:06:13.252Z,2.40
2022-10-07T03:08:40.814Z,2.67
2022-10-07T03:11:07.798Z,2.60
2022-10-07T03:13:35.285Z,3.00
2022-10-07T03:16:05.645Z,2.90
2022-10-07T03:18:32.598Z,2.60
2022-10-07T03:21:22.691Z,3.10
2022-10-07T03:23:52.805Z,2.83
2022-10-07T03:26:21.728Z,2.95
2022-10-07T03:28:49.079Z,2.88
2022-10-07T03:31:16.237Z,3.17
2022-10-07T03:33:47.338Z,3.13
2022-10-07T03:36:14.043Z,3.20
2022-10-07T03:38:43.146Z,3.08
2022-10-07T03:41:11.150Z,3.08
2022-10-07T03:43:38.478Z,2.90
2022-10-07T03:46:06.449Z,3.28
2022-10-07T03:48:35.786Z,2.78
2022-10-07T03:51:02.718Z,3.03
2022-10-07T03:53:31.430Z,2.90
2022-10-07T03:56:00.565Z,3.30
2022-10-07T03:58:28.592Z,2.90
2022-10-07T04:01:11.825Z,3.22
2022-10-07T04:03:43.898Z,3.00
2022-10-07T04:06:10.525Z,3.10
2022-10-07T04:08:38.956Z,3.70
2022-10-07T04:11:07.176Z,3.20
2022-10-07T04:13:36.560Z,3.00
2022-10-07T04:16:09.018Z,4.05
2022-10-07T04:18:36.415Z,2.85
2022-10-07T04:21:03.158Z,3.00
2022-10-07T04:23:32.094Z,3.08
2022-10-07T04:25:58.794Z,3.05
2022-10-07T04:28:26.708Z,3.20
2022-10-07T04:31:03.327Z,3.90
2022-10-07T04:33:34.641Z,3.13
2022-10-07T04:36:05.661Z,3.13
2022-10-07T04:38:33.014Z,3.42
2022-10-07T04:41:03.730Z,2.80
2022-10-07T04:43:34.021Z,2.65
2022-10-07T04:46:14.730Z,2.83
2022-10-07T04:48:47.496Z,3.53
2022-10-07T04:51:17.862Z,3.00
2022-10-07T04:53:56.505Z,3.53
2022-10-07T04:56:29.625Z,3.90
2022-10-07T04:58:56.389Z,3.35
2022-10-07T05:01:23.970Z,2.92
2022-10-07T05:03:50.885Z,3.42
2022-10-07T05:06:18.461Z,3.30
2022-10-07T05:08:45.749Z,3.20
2022-10-07T05:11:13.527Z,3.22
2022-10-07T05:13:47.546Z,3.28
2022-10-07T05:16:14.791Z,3.75
2022-10-07T05:18:42.042Z,3.63
2022-10-07T05:21:11.638Z,4.82
2022-10-07T05:23:42.479Z,4.18
2022-10-07T05:26:14.232Z,4.35
2022-10-07T05:28:45.611Z,4.40
2022-10-07T05:31:15.290Z,5.80
2022-10-07T05:33:47.149Z,6.05
2022-10-07T05:36:14.253Z,6.47
2022-10-07T05:38:42.481Z,6.13
2022-10-07T05:41:10.983Z,5.88
2022-10-07T05:43:42.205Z,6.55
2022-10-07T05:46:13.490Z,7.25
2022-10-07T05:48:48.393Z,7.68
2022-10-07T05:51:15.868Z,7.28
2022-10-07T05:53:43.096Z,6.53
2022-10-07T05:56:12.141Z,6.43
2022-10-07T05:58:39.217Z,6.43
2022-10-07T06:01:14.192Z,6.70
2022-10-07T06:03:42.617Z,6.60
2022-10-07T06:06:10.072Z,7.10
2022-10-07T06:08:37.072Z,6.82
2022-10-07T06:11:23.047Z,7.30
2022-10-07T06:13:52.713Z,7.78
2022-10-07T06:16:19.806Z,8.25
2022-10-07T06:18:50.510Z,8.00
2022-10-07T06:21:19.271Z,7.43
2022-10-07T06:23:51.319Z,8.20
2022-10-07T06:26:21.720Z,8.25
2022-10-07T06:28:48.693Z,8.57
2022-10-07T06:31:22.228Z,8.63
2022-10-07T06:33:49.559Z,9.15
2022-10-07T06:36:16.843Z,9.63
2022-10-07T06:38:46.142Z,9.55
2022-10-07T06:41:13.229Z,9.52
2022-10-07T06:43:40.327Z,10.32
2022-10-07T06:46:17.299Z,10.18
2022-10-07T06:48:46.670Z,12.43
2022-10-07T06:51:19.962Z,11.32
2022-10-07T06:53:51.504Z,10.75
2022-10-07T06:56:18.123Z,11.80
2022-10-07T06:58:44.759Z,10.57
2022-10-07T07:01:14.292Z,10.90
2022-10-07T07:03:41.654Z,11.68
2022-10-07T07:06:09.167Z,10.73
2022-10-07T07:08:35.913Z,11.25
2022-10-07T07:11:27.433Z,11.98
2022-10-07T07:13:56.078Z,11.45
2022-10-07T07:16:24.420Z,11.75
2022-10-07T07:18:55.009Z,11.73
2022-10-07T07:21:23.540Z,11.68
2022-10-07T07:23:53.047Z,13.10
2022-10-07T07:26:20.496Z,11.23
2022-10-07T07:28:59.152Z,12.02
2022-10-07T07:31:29.442Z,12.25
2022-10-07T07:33:56.840Z,12.10
2022-10-07T07:36:24.605Z,13.27
2022-10-07T07:46:34.229Z,13.75
2022-10-07T07:49:00.995Z,13.38
2022-10-07T07:51:27.715Z,14.07
2022-10-07T07:53:55.289Z,13.32
2022-10-07T07:56:22.047Z,12.75
2022-10-07T07:58:48.896Z,12.85
2022-10-07T08:01:17.805Z,12.18
2022-10-07T08:03:46.738Z,11.32
2022-10-07T08:06:15.531Z,11.88
2022-10-07T08:08:43.219Z,11.55
2022-10-07T08:11:12.254Z,11.52
2022-10-07T08:13:41.298Z,10.77
2022-10-07T08:16:14.469Z,10.70
2022-10-07T08:18:43.138Z,11.77
2022-10-07T08:21:10.762Z,11.43
2022-10-07T08:23:38.391Z,11.80
2022-10-07T08:26:06.106Z,11.63
2022-10-07T08:28:32.961Z,11.45
2022-10-07T08:31:07.280Z,12.32
2022-10-07T08:33:35.494Z,13.45
2022-10-07T08:36:03.951Z,13.27
2022-10-07T08:38:31.765Z,13.45
2022-10-07T08:41:05.506Z,13.30
2022-10-07T08:43:32.891Z,13.73
2022-10-07T08:46:00.682Z,13.90
2022-10-07T08:48:30.582Z,14.23
2022-10-07T08:50:57.183Z,13.90
2022-10-07T08:53:29.309Z,14.07
2022-10-07T08:56:00.822Z,15.60
2022-10-07T08:58:40.883Z,15.73
2022-10-07T09:01:27.927Z,15.68
2022-10-07T09:04:03.675Z,15.85
2022-10-07T09:06:33.304Z,15.68
2022-10-07T09:09:02.912Z,16.17
2022-10-07T09:11:30.697Z,16.30
2022-10-07T09:14:04.615Z,15.68
2022-10-07T09:16:41.789Z,17.00
2022-10-07T09:19:11.722Z,16.88
2022-10-07T09:21:48.029Z,16.15
2022-10-07T09:24:20.394Z,16.42
2022-10-07T09:26:47.341Z,16.38
2022-10-07T09:29:13.996Z,16.40
2022-10-07T09:31:40.604Z,17.05
2022-10-07T09:34:13.276Z,15.82
2022-10-07T09:37:01.275Z,17.52
2022-10-07T09:39:28.414Z,16.20
2022-10-07T09:41:55.005Z,16.70
2022-10-07T09:44:25.948Z,17.13
2022-10-07T09:47:12.556Z,17.20
2022-10-07T09:49:41.869Z,17.85
2022-10-07T09:52:19.391Z,17.77
2022-10-07T09:54:47.639Z,17.20
2022-10-07T09:57:34.711Z,17.50
2022-10-07T10:00:13.688Z,16.70
2022-10-07T10:02:41.551Z,18.20
2022-10-07T10:05:22.620Z,17.13
2022-10-07T10:07:52.961Z,17.63
2022-10-07T10:10:24.516Z,16.88
2022-10-07T10:12:52.960Z,16.95
2022-10-07T10:15:27.617Z,17.38
2022-10-07T10:17:57.060Z,17.98
2022-10-07T10:20:23.630Z,17.33
2022-10-07T10:22:50.833Z,17.45
2022-10-07T10:25:46.453Z,16.73
2022-10-07T10:28:16.737Z,16.58
2022-10-07T10:30:49.950Z,17.83
2022-10-07T10:33:23.175Z,17.30
2022-10-07T10:36:02.191Z,16.17
2022-10-07T10:38:50.104Z,16.02
2022-10-07T10:41:24.401Z,17.02
2022-10-07T10:43:58.082Z,16.02
2022-10-07T10:46:36.822Z,17.30
2022-10-07T10:49:10.907Z,17.73
2022-10-07T10:51:40.400Z,16.27
2022-10-07T10:54:22.680Z,17.00
2022-10-07T10:56:55.461Z,16.73
2022-10-07T10:59:27.832Z,15.48
2022-10-07T11:02:01.014Z,16.27
2022-10-07T11:04:50.225Z,15.82
2022-10-07T11:07:23.526Z,15.02
2022-10-07T11:10:02.237Z,14.82
2022-10-07T11:12:37.326Z,15.63
2022-10-07T11:15:30.105Z,16.23
2022-10-07T11:17:59.800Z,15.32
2022-10-07T11:20:40.983Z,14.77
2022-10-07T11:23:21.348Z,16.10
2022-10-07T11:25:52.786Z,15.05
2022-10-07T11:28:29.515Z,14.40
2022-10-07T11:31:06.649Z,15.50
2022-10-07T11:33:37.132Z,16.60
2022-10-07T11:36:14.473Z,15.60
2022-10-07T11:38:42.076Z,15.05
2022-10-07T11:41:13.949Z,16.23
2022-10-07T11:43:44.679Z,15.07
2022-10-07T11:46:30.348Z,15.23
2022-10-07T11:49:15.930Z,15.32
2022-10-07T11:51:50.486Z,15.82
2022-10-07T11:54:18.105Z,15.65
2022-10-07T11:56:45.875Z,15.60
2022-10-07T11:59:28.256Z,16.17
2022-10-07T12:01:55.267Z,15.23
2022-10-07T12:04:30.814Z,15.55
2022-10-07T12:07:16.360Z,14.93
2022-10-07T12:10:01.844Z,14.75
2022-10-07T12:12:44.746Z,15.35
2022-10-07T12:15:30.609Z,14.25
2022-10-07T12:18:06.057Z,15.82
2022-10-07T12:20:45.067Z,15.40
2022-10-07T12:23:21.962Z,16.15
2022-10-07T12:25:55.299Z,15.25
2022-10-07T12:28:35.452Z,16.02
2022-10-07T12:31:06.841Z,14.60
2022-10-07T12:33:45.809Z,15.15
2022-10-07T12:36:18.515Z,15.10
2022-10-07T12:38:46.177Z,15.80
2022-10-07T12:41:24.352Z,16.30
2022-10-07T12:44:13.928Z,14.93
2022-10-07T12:46:40.574Z,15.35
2022-10-07T12:49:21.870Z,14.93
2022-10-07T12:51:49.400Z,13.43
2022-10-07T12:54:20.487Z,16.20
2022-10-07T12:56:48.504Z,14.38
2022-10-07T12:59:49.651Z,14.88
2022-10-07T13:02:31.712Z,14.32
2022-10-07T13:05:18.013Z,13.98
2022-10-07T13:07:59.707Z,13.60
2022-10-07T13:10:32.265Z,14.30
2022-10-07T13:13:04.273Z,14.15
2022-10-07T13:15:46.224Z,14.07
2022-10-07T13:18:19.048Z,13.90
2022-10-07T13:20:54.668Z,14.23
2022-10-07T13:23:26.763Z,13.95
2022-10-07T13:25:55.057Z,14.05
2022-10-07T13:28:23.182Z,14.80
2022-10-07T13:30:51.009Z,12.40
2022-10-07T13:33:26.341Z,13.70
2022-10-07T13:36:06.496Z,13.88
2022-10-07T13:38:34.122Z,13.63
2022-10-07T13:41:03.389Z,13.30
2022-10-07T13:43:31.945Z,13.23
2022-10-07T13:46:00.283Z,13.73
2022-10-07T13:48:29.339Z,13.02
2022-10-07T13:50:58.523Z,13.70
2022-10-07T13:53:35.529Z,13.30
2022-10-07T13:56:07.021Z,13.35
2022-10-07T13:58:36.814Z,12.68
2022-10-07T14:01:04.926Z,12.50
2022-10-07T14:03:31.665Z,13.82
2022-10-07T14:05:58.365Z,12.65
2022-10-07T14:08:27.876Z,14.13
2022-10-07T14:10:57.304Z,12.38
2022-10-07T14:13:24.109Z,12.52
2022-10-07T14:15:53.435Z,12.63
2022-10-07T14:18:20.090Z,12.75
2022-10-07T14:21:06.433Z,13.23
2022-10-07T14:23:34.443Z,13.00
2022-10-07T14:26:05.413Z,13.13
2022-10-07T14:28:32.106Z,12.40
2022-10-07T14:31:23.710Z,12.52
2022-10-07T14:34:09.021Z,12.50
2022-10-07T14:36:36.228Z,13.15
2022-10-07T14:39:30.674Z,12.38
2022-10-07T14:41:57.353Z,12.32
2022-10-07T14:44:24.075Z,12.13
2022-10-07T14:46:50.706Z,11.60
2022-10-07T14:49:18.273Z,12.38
2022-10-07T14:51:44.954Z,12.13
2022-10-07T14:54:12.237Z,11.65
2022-10-07T14:56:38.857Z,13.15
2022-10-07T14:59:09.585Z,12.68
2022-10-07T15:01:36.201Z,13.32
2022-10-07T15:04:02.999Z,12.73
2022-10-07T15:06:29.751Z,12.65
2022-10-07T15:08:56.871Z,12.77
2022-10-07T15:11:23.503Z,12.68
2022-10-07T15:13:50.167Z,12.57
2022-10-07T15:16:18.062Z,12.60
2022-10-07T15:18:49.573Z,12.48
2022-10-07T15:21:18.847Z,12.48
2022-10-07T15:23:49.404Z,13.70
2022-10-07T15:26:15.979Z,12.45
2022-10-07T15:28:42.705Z,13.20
2022-10-07T15:31:09.740Z,14.60
2022-10-07T15:33:37.155Z,14.23
2022-10-07T15:36:04.078Z,14.77
2022-10-07T15:38:31.282Z,16.33
2022-10-07T15:40:59.591Z,15.40
2022-10-07T15:43:26.392Z,15.25
2022-10-07T15:45:53.129Z,14.50
2022-10-07T15:48:23.080Z,16.10
2022-10-07T15:50:50.626Z,16.65
2022-10-07T15:53:18.306Z,16.05
2022-10-07T15:55:52.082Z,16.13
2022-10-07T15:58:19.112Z,16.70
2022-10-07T16:01:05.979Z,15.93
2022-10-07T16:03:34.040Z,16.25
2022-10-07T16:06:02.210Z,15.90
2022-10-07T16:08:29.407Z,16.58
2022-10-07T16:10:56.005Z,15.65
2022-10-07T16:13:23.157Z,15.70
2022-10-07T16:15:56.756Z,16.73
2022-10-07T16:18:23.376Z,16.45
2022-10-07T16:20:49.990Z,15.85
2022-10-07T16:23:16.590Z,16.17
2022-10-07T16:25:43.196Z,15.50
2022-10-07T16:28:28.661Z,15.30
2022-10-07T16:30:55.399Z,15.70
2022-10-07T16:33:21.981Z,16.58
2022-10-07T16:35:48.601Z,16.15
2022-10-07T16:38:15.165Z,15.63
2022-10-07T16:40:50.735Z,16.85
2022-10-07T16:43:17.346Z,16.23
2022-10-07T16:45:44.364Z,15.98
2022-10-07T16:48:12.147Z,16.33
2022-10-07T16:50:38.755Z,15.02
2022-10-07T16:53:05.449Z,15.73
2022-10-07T16:55:33.827Z,15.02
2022-10-07T16:58:00.419Z,14.63
2022-10-07T17:00:27.221Z,15.65
2022-10-07T17:02:53.810Z,22.00
2022-10-07T17:05:20.436Z,17.80
2022-10-07T17:07:48.068Z,16.25
2022-10-07T17:10:15.003Z,16.52
2022-10-07T17:12:41.562Z,15.48
2022-10-07T17:15:09.046Z,16.17
2022-10-07T17:17:35.680Z,15.80
2022-10-07T17:20:02.301Z,17.25
2022-10-07T17:22:28.881Z,15.90
2022-10-07T17:24:55.524Z,15.77
2022-10-07T17:27:22.233Z,16.08
2022-10-07T17:29:48.792Z,15.65
2022-10-07T17:32:15.395Z,16.05
2022-10-07T17:34:45.289Z,15.77
2022-10-07T17:37:12.230Z,16.48
2022-10-07T17:39:38.850Z,15.65
2022-10-07T17:42:05.477Z,15.60
2022-10-07T17:44:32.101Z,16.08
2022-10-07T17:47:03.469Z,15.00
2022-10-07T17:49:30.443Z,14.93
2022-10-07T17:51:57.467Z,14.70
2022-10-07T17:54:24.065Z,15.80
2022-10-07T17:56:50.691Z,15.23
2022-10-07T17:59:17.236Z,15.48
2022-10-07T18:01:44.577Z,14.90
2022-10-07T18:04:13.420Z,14.38
2022-10-07T18:06:42.810Z,15.50
2022-10-07T18:09:10.038Z,15.45
2022-10-07T18:11:55.276Z,16.65
2022-10-07T18:14:41.104Z,14.98
2022-10-07T18:17:08.715Z,15.35
2022-10-07T18:19:35.590Z,15.52
2022-10-07T18:22:02.977Z,15.13
2022-10-07T18:24:29.664Z,15.93
2022-10-07T18:26:58.833Z,15.20
2022-10-07T18:29:32.806Z,15.68
2022-10-07T18:31:59.889Z,15.80
2022-10-07T18:34:26.697Z,15.55
2022-10-07T18:36:56.503Z,14.90
2022-10-07T18:39:24.404Z,15.15
2022-10-07T18:41:51.430Z,15.18
2022-10-07T18:44:18.066Z,14.27
2022-10-07T18:46:44.778Z,14.05
2022-10-07T18:49:13.866Z,14.43
2022-10-07T18:51:41.031Z,15.15
2022-10-07T18:54:07.742Z,13.25
2022-10-07T18:56:38.451Z,14.80
2022-10-07T18:59:07.855Z,14.93
2022-10-07T19:01:34.597Z,12.90
2022-10-07T19:04:01.905Z,13.55
2022-10-07T19:06:29.993Z,13.13
2022-10-07T19:08:57.578Z,12.93
2022-10-07T19:11:24.637Z,15.20
2022-10-07T19:13:53.407Z,12.48
2022-10-07T19:16:24.711Z,13.48
2022-10-07T19:18:53.128Z,13.52
2022-10-07T19:21:20.407Z,13.93
2022-10-07T19:23:47.716Z,13.20
2022-10-07T19:26:17.757Z,13.77
2022-10-07T19:28:47.719Z,12.43
2022-10-07T19:31:35.170Z,12.82
2022-10-07T19:34:03.349Z,13.90
2022-10-07T19:36:31.098Z,13.48
2022-10-07T19:38:58.554Z,13.45
2022-10-07T19:41:27.339Z,14.02
2022-10-07T19:43:54.286Z,12.55
2022-10-07T19:46:21.590Z,13.07
2022-10-07T19:48:48.630Z,13.15
2022-10-07T19:51:16.941Z,14.98
2022-10-07T19:53:47.092Z,13.93
2022-10-07T19:56:15.801Z,12.77
2022-10-07T19:58:53.530Z,13.43
2022-10-07T20:01:21.452Z,12.85
2022-10-07T20:03:48.888Z,13.88
2022-10-07T20:06:15.975Z,14.27
2022-10-07T20:08:43.700Z,13.65
2022-10-07T20:11:10.948Z,13.70
2022-10-07T20:13:37.818Z,13.65
2022-10-07T20:16:05.930Z,13.25
2022-10-07T20:18:33.317Z,14.00
2022-10-07T20:21:05.587Z,13.50
2022-10-07T20:23:33.377Z,14.15
2022-10-07T20:26:05.240Z,13.80
2022-10-07T20:28:32.147Z,15.82
2022-10-07T20:31:02.802Z,14.05
2022-10-07T20:33:29.373Z,14.55
2022-10-07T20:35:55.957Z,14.77
2022-10-07T20:38:22.564Z,14.18
2022-10-07T20:41:10.875Z,15.40
2022-10-07T20:43:37.478Z,14.13
2022-10-07T20:46:04.105Z,14.82
2022-10-07T20:48:32.249Z,15.05
2022-10-07T20:51:03.201Z,14.80
2022-10-07T20:53:29.817Z,14.90
2022-10-07T20:55:56.453Z,15.20
2022-10-07T20:58:23.062Z,14.82
2022-10-07T21:00:49.721Z,13.88
2022-10-07T21:03:18.253Z,14.68
2022-10-07T21:05:44.942Z,15.30
2022-10-07T21:08:11.558Z,14.70
2022-10-07T21:10:38.202Z,15.27
2022-10-07T21:13:05.183Z,15.02
2022-10-07T21:15:31.751Z,14.43
2022-10-07T21:17:58.354Z,14.30
2022-10-07T21:20:25.004Z,15.45
2022-10-07T21:22:54.203Z,14.25
2022-10-07T21:25:20.776Z,14.80
2022-10-07T21:27:47.403Z,15.43
2022-10-07T21:30:14.139Z,14.75
2022-10-07T21:32:41.298Z,14.70
2022-10-07T21:35:08.165Z,15.65
2022-10-07T21:37:34.938Z,15.57
2022-10-07T21:40:01.680Z,16.45
2022-10-07T21:42:28.999Z,15.75
2022-10-07T21:44:55.833Z,16.45
2022-10-07T21:47:22.493Z,15.02
2022-10-07T21:49:49.191Z,15.68
2022-10-07T21:52:15.767Z,15.15
2022-10-07T21:54:42.442Z,15.43
2022-10-07T21:57:09.087Z,14.88
2022-10-07T21:59:35.725Z,15.55
2022-10-07T22:02:02.616Z,14.30
2022-10-07T22:04:30.806Z,16.52
2022-10-07T22:07:16.138Z,15.57
2022-10-07T22:09:42.949Z,15.93
2022-10-07T22:12:09.534Z,15.32
2022-10-07T22:14:37.174Z,15.40
2022-10-07T22:17:04.433Z,16.10
2022-10-07T22:19:31.005Z,15.38
2022-10-07T22:21:57.683Z,15.13
2022-10-07T22:24:24.267Z,15.52
2022-10-07T22:26:51.487Z,15.45
2022-10-07T22:29:18.921Z,15.02
2022-10-07T22:31:45.659Z,15.13
2022-10-07T22:34:31.161Z,14.05
2022-10-07T22:37:00.675Z,16.15
2022-10-07T22:39:28.682Z,15.27
2022-10-07T22:41:55.490Z,15.93
2022-10-07T22:44:22.134Z,15.65
2022-10-07T22:46:48.822Z,15.70
2022-10-07T22:49:15.407Z,15.00
2022-10-07T22:51:42.581Z,15.57
2022-10-07T22:54:11.110Z,17.15
2022-10-07T22:56:37.746Z,15.88
2022-10-07T22:59:04.532Z,15.63
2022-10-07T23:01:34.122Z,16.85
2022-10-07T23:04:02.999Z,16.25
2022-10-07T23:06:32.391Z,16.77
2022-10-07T23:08:59.422Z,17.02
2022-10-07T23:11:26.980Z,16.67
2022-10-07T23:13:54.612Z,18.42
2022-10-07T23:16:22.335Z,18.20
2022-10-07T23:18:50.385Z,17.73
2022-10-07T23:21:18.174Z,19.38
2022-10-07T23:23:46.461Z,19.42
2022-10-07T23:26:18.803Z,20.40
2022-10-07T23:28:46.037Z,19.73
2022-10-07T23:31:19.901Z,20.48
2022-10-07T23:33:47.456Z,23.27
2022-10-07T23:36:15.005Z,21.42
2022-10-07T23:38:44.785Z,21.58
2022-10-07T23:41:12.210Z,23.13
2022-10-07T23:43:38.904Z,24.63
2022-10-07T23:46:06.799Z,24.98
2022-10-07T23:48:35.083Z,24.27
2022-10-07T23:51:05.926Z,22.00
2022-10-07T23:53:33.462Z,23.90
2022-10-07T23:56:00.151Z,23.65
2022-10-07T23:58:27.783Z,23.42
